Time;durP1;ratioP1;P1;durP2;ratioP2;P2;SDS_P1;SDS_P2;PMS_P1;PMS_P2;Temp;Humidity;BMP_temperature;BMP_pressure;BME280_temperature;BME280_humidity;BME280_pressure;Samples;Min_cycle;Max_cycle;Signal;HPM_P1;HPM_P2
2022/09/22 00:01:37;;;;;;;64.60;32.50;;;8.00;99.90;;;;;;5109810;28;20264;-54
2022/09/22 00:04:09;;;;;;;50.55;30.38;;;8.00;99.90;;;;;;5109626;28;20493;-54
2022/09/22 00:06:46;;;;;;;41.53;24.50;;;8.00;99.90;;;;;;5110874;28;20054;-54
2022/09/22 00:09:15;;;;;;;37.83;23.23;;;7.90;99.90;;;;;;5110957;28;21083;-55
2022/09/22 00:11:43;;;;;;;36.85;22.45;;;7.80;99.90;;;;;;5110975;28;20042;-54
2022/09/22 00:14:14;;;;;;;37.72;22.73;;;7.80;99.90;;;;;;5111002;28;20028;-54
2022/09/22 00:16:46;;;;;;;35.80;23.42;;;7.90;99.90;;;;;;5110639;28;20024;-53
2022/09/22 00:19:20;;;;;;;39.58;27.08;;;7.90;99.90;;;;;;5110789;28;20076;-53
2022/09/22 00:21:46;;;;;;;40.88;29.10;;;7.90;99.90;;;;;;5110606;28;20027;-54
2022/09/22 00:24:13;;;;;;;38.40;27.98;;;7.90;99.90;;;;;;5109327;28;20077;-54
2022/09/22 00:26:39;;;;;;;38.50;26.52;;;7.90;99.90;;;;;;5110733;28;20104;-54
2022/09/22 00:29:08;;;;;;;38.10;25.95;;;7.90;99.90;;;;;;5110302;28;20051;-54
2022/09/22 00:31:35;;;;;;;35.30;22.15;;;8.00;99.90;;;;;;5110456;28;20032;-54
2022/09/22 00:34:00;;;;;;;33.97;21.65;;;8.00;99.90;;;;;;5110468;28;20043;-54
2022/09/22 00:36:27;;;;;;;32.33;21.98;;;8.00;99.90;;;;;;5108822;28;20069;-54
2022/09/22 00:38:55;;;;;;;31.90;21.58;;;8.10;99.90;;;;;;5108866;28;20035;-53
2022/09/22 00:41:26;;;;;;;30.45;19.45;;;8.10;99.90;;;;;;5110374;28;20019;-54
2022/09/22 00:44:20;;;;;;;29.83;18.88;;;8.10;99.90;;;;;;5110316;28;20030;-54
2022/09/22 00:46:52;;;;;;;30.40;18.30;;;8.20;99.90;;;;;;5110221;28;20027;-54
2022/09/22 00:49:23;;;;;;;28.20;18.48;;;8.20;99.90;;;;;;5110063;28;20030;-54
2022/09/22 00:51:49;;;;;;;29.10;18.48;;;8.30;99.90;;;;;;5109934;28;20102;-53
2022/09/22 00:54:17;;;;;;;28.35;17.65;;;8.30;99.90;;;;;;5110386;28;20122;-53
2022/09/22 00:56:51;;;;;;;29.58;19.02;;;8.30;99.90;;;;;;5110328;28;20129;-56
2022/09/22 00:59:20;;;;;;;27.85;19.15;;;8.30;99.90;;;;;;5110059;28;20032;-54
2022/09/22 01:01:47;;;;;;;31.50;19.05;;;8.40;99.90;;;;;;5109977;28;20618;-54
2022/09/22 01:04:14;;;;;;;39.22;20.92;;;8.40;99.90;;;;;;5110129;28;20032;-54
2022/09/22 01:06:40;;;;;;;46.45;24.15;;;8.40;99.90;;;;;;5109992;28;20031;-54
2022/09/22 01:09:06;;;;;;;45.85;25.15;;;8.50;99.90;;;;;;5110005;28;20031;-53
2022/09/22 01:11:33;;;;;;;32.35;20.85;;;8.40;99.90;;;;;;5109132;28;20492;-54
2022/09/22 01:14:08;;;;;;;33.10;18.88;;;8.40;99.90;;;;;;5109160;28;20034;-54
2022/09/22 01:16:42;;;;;;;33.40;20.45;;;8.40;99.90;;;;;;5108672;28;20034;-54
2022/09/22 01:19:36;;;;;;;35.60;21.25;;;8.40;99.90;;;;;;5110260;28;20036;-53
2022/09/22 01:22:36;;;;;;;38.50;21.63;;;8.50;99.90;;;;;;5109774;28;20026;-53
2022/09/22 01:25:01;;;;;;;;;;;8.50;99.90;;;;;;5110008;28;20037;-53
2022/09/22 01:27:46;;;;;;;40.05;23.95;;;8.60;99.90;;;;;;5109641;28;19915;-53
2022/09/22 01:30:26;;;;;;;46.20;25.10;;;8.60;99.90;;;;;;5109748;28;20027;-53
2022/09/22 01:32:54;;;;;;;50.28;26.50;;;8.60;99.90;;;;;;5108641;28;20035;-55
2022/09/22 01:35:53;;;;;;;53.35;28.40;;;8.70;99.90;;;;;;5110179;28;20153;-55
2022/09/22 01:38:32;;;;;;;59.85;29.65;;;8.70;99.90;;;;;;5077135;28;20390;-52
2022/09/22 01:41:06;;;;;;;51.75;26.48;;;8.70;99.90;;;;;;5108562;28;20115;-53
2022/09/22 01:43:36;;;;;;;55.70;27.52;;;8.70;99.90;;;;;;5108519;28;20032;-53
2022/09/22 01:46:08;;;;;;;57.10;28.48;;;8.80;99.90;;;;;;5110218;28;20052;-53
2022/09/22 01:48:37;;;;;;;57.70;30.08;;;8.80;99.90;;;;;;5109771;28;20119;-55
2022/09/22 01:51:11;;;;;;;57.45;27.13;;;8.90;99.90;;;;;;5109845;28;20026;-54
2022/09/22 01:53:43;;;;;;;56.72;29.48;;;8.90;99.90;;;;;;5109851;28;20071;-53
2022/09/22 01:56:12;;;;;;;61.92;29.27;;;8.90;99.90;;;;;;5109941;28;20031;-54
2022/09/22 01:58:52;;;;;;;55.17;28.35;;;9.00;99.90;;;;;;5108178;28;20071;-53
2022/09/22 02:01:22;;;;;;;49.38;26.70;;;9.00;99.90;;;;;;5110077;28;20030;-54
2022/09/22 02:03:52;;;;;;;50.33;25.63;;;8.90;99.90;;;;;;5110400;28;20050;-53
2022/09/22 02:06:38;;;;;;;47.53;26.00;;;8.90;99.90;;;;;;5113788;28;20020;-54
2022/09/22 02:09:14;;;;;;;45.83;24.73;;;8.90;99.90;;;;;;5112676;28;20044;-54
2022/09/22 02:11:41;;;;;;;50.50;24.88;;;8.90;99.90;;;;;;5113739;27;20070;-53
2022/09/22 02:14:07;;;;;;;49.00;25.23;;;8.90;99.90;;;;;;5113466;28;20032;-53
2022/09/22 02:16:33;;;;;;;46.28;24.92;;;8.80;99.90;;;;;;5111506;28;20428;-52
2022/09/22 02:19:10;;;;;;;45.80;24.13;;;8.80;99.90;;;;;;5113614;28;20058;-53
2022/09/22 02:21:38;;;;;;;44.05;23.83;;;8.80;99.90;;;;;;5113533;28;20097;-53
2022/09/22 02:24:04;;;;;;;43.45;25.35;;;8.80;99.90;;;;;;5113334;28;20036;-53
2022/09/22 02:26:34;;;;;;;42.83;23.77;;;8.80;99.90;;;;;;5113364;28;20030;-52
2022/09/22 02:29:06;;;;;;;46.40;23.73;;;8.90;99.90;;;;;;5112904;28;20047;-53
2022/09/22 02:31:35;;;;;;;38.30;22.98;;;8.90;99.90;;;;;;5112650;28;20030;-53
2022/09/22 02:34:02;;;;;;;38.92;22.70;;;8.90;99.90;;;;;;5113077;28;20020;-53
2022/09/22 02:36:49;;;;;;;39.47;22.55;;;8.80;99.90;;;;;;5113217;28;20471;-53
2022/09/22 02:39:38;;;;;;;39.83;23.15;;;8.80;99.90;;;;;;5112626;28;20101;-53
2022/09/22 02:42:07;;;;;;;38.72;23.10;;;8.80;99.90;;;;;;5112996;28;20645;-53
2022/09/22 02:45:01;;;;;;;41.22;23.83;;;8.80;99.90;;;;;;5112979;28;20024;-53
2022/09/22 02:47:35;;;;;;;41.08;23.55;;;8.80;99.90;;;;;;5112349;28;20115;-53
2022/09/22 02:50:07;;;;;;;43.38;25.63;;;8.80;99.90;;;;;;5112945;28;20665;-53
2022/09/22 02:52:35;;;;;;;53.85;23.33;;;8.80;99.90;;;;;;5112872;28;20023;-53
2022/09/22 02:55:00;;;;;;;80.82;26.20;;;8.80;99.90;;;;;;5111208;28;20500;-54
2022/09/22 02:57:26;;;;;;;47.90;26.27;;;8.80;99.90;;;;;;5111724;28;20035;-54
2022/09/22 02:59:52;;;;;;;39.72;24.67;;;8.80;99.90;;;;;;5111773;28;20425;-54
2022/09/22 03:02:18;;;;;;;47.40;23.83;;;8.80;99.90;;;;;;5111714;28;20020;-54
2022/09/22 03:04:43;;;;;;;54.10;24.88;;;8.80;99.90;;;;;;5112127;28;20027;-53
2022/09/22 03:07:10;;;;;;;40.97;24.38;;;8.80;99.90;;;;;;5112650;28;20020;-54
2022/09/22 03:09:36;;;;;;;52.38;23.25;;;8.80;99.90;;;;;;5111234;28;20379;-54
2022/09/22 03:12:02;;;;;;;52.42;23.52;;;8.80;99.90;;;;;;5112448;28;20479;-55
2022/09/22 03:14:28;;;;;;;45.50;23.43;;;8.80;99.90;;;;;;5112244;28;20042;-54
2022/09/22 03:16:54;;;;;;;45.17;23.48;;;8.80;99.90;;;;;;5093922;28;20475;-54
2022/09/22 03:19:20;;;;;;;41.63;23.30;;;8.70;99.90;;;;;;5111982;28;20039;-54
2022/09/22 03:21:45;;;;;;;36.90;22.77;;;8.80;99.90;;;;;;5112093;28;20024;-54
2022/09/22 03:24:11;;;;;;;39.30;23.13;;;8.80;99.90;;;;;;5112122;28;20070;-53
2022/09/22 03:26:37;;;;;;;46.63;23.60;;;8.80;99.90;;;;;;5112020;28;20035;-54
2022/09/22 03:29:02;;;;;;;43.53;24.40;;;8.70;99.90;;;;;;5112359;28;20119;-54
2022/09/22 03:31:28;;;;;;;47.97;25.73;;;8.80;99.90;;;;;;5111830;28;20432;-54
2022/09/22 03:33:54;;;;;;;47.30;27.17;;;8.80;99.90;;;;;;5111918;28;20032;-55
2022/09/22 03:36:20;;;;;;;46.55;27.52;;;8.80;99.90;;;;;;5112032;28;20123;-54
2022/09/22 03:38:46;;;;;;;41.08;24.52;;;8.80;99.90;;;;;;5111762;28;20027;-54
2022/09/22 03:41:11;;;;;;;45.42;24.15;;;8.80;99.90;;;;;;5111799;28;20489;-54
2022/09/22 03:43:37;;;;;;;40.40;22.95;;;8.80;99.90;;;;;;5111883;28;20457;-54
2022/09/22 03:46:02;;;;;;;38.78;23.05;;;8.80;99.90;;;;;;5110230;28;20026;-54
2022/09/22 03:48:29;;;;;;;42.33;23.75;;;8.80;99.90;;;;;;5111641;28;20038;-54
2022/09/22 03:50:56;;;;;;;38.92;20.98;;;8.80;99.90;;;;;;5111643;28;20055;-53
2022/09/22 03:53:22;;;;;;;39.60;21.17;;;8.80;99.90;;;;;;5111627;28;20386;-54
2022/09/22 03:55:48;;;;;;;43.13;23.38;;;8.80;99.90;;;;;;5111488;28;20032;-54
2022/09/22 03:58:14;;;;;;;45.25;22.38;;;8.80;99.90;;;;;;5110962;28;20040;-54
2022/09/22 04:00:40;;;;;;;35.25;21.50;;;8.80;99.90;;;;;;5110498;28;20028;-54
2022/09/22 04:03:07;;;;;;;35.30;20.48;;;8.80;99.90;;;;;;5110694;28;20020;-54
2022/09/22 04:05:33;;;;;;;38.63;22.15;;;8.90;99.90;;;;;;5111096;28;20028;-54
2022/09/22 04:07:59;;;;;;;38.03;21.48;;;8.80;99.90;;;;;;5108600;28;20073;-54
2022/09/22 04:10:25;;;;;;;36.88;21.50;;;8.90;99.90;;;;;;5101865;28;20024;-54
2022/09/22 04:12:51;;;;;;;32.72;20.65;;;8.80;99.90;;;;;;5099963;28;20603;-54
2022/09/22 04:15:17;;;;;;;33.40;20.77;;;8.80;99.90;;;;;;5100173;28;20530;-54
2022/09/22 04:17:45;;;;;;;35.05;20.90;;;8.80;99.90;;;;;;5104732;28;20490;-54
2022/09/22 04:20:11;;;;;;;33.40;19.45;;;8.80;99.90;;;;;;5110858;28;20020;-53
2022/09/22 04:22:38;;;;;;;39.83;21.92;;;8.80;99.90;;;;;;5109540;28;20034;-54
2022/09/22 04:25:05;;;;;;;34.60;21.50;;;8.80;99.90;;;;;;5111050;28;20024;-54
2022/09/22 04:27:30;;;;;;;32.50;20.23;;;8.80;99.90;;;;;;5108578;28;20058;-54
2022/09/22 04:29:56;;;;;;;30.27;19.17;;;8.80;99.90;;;;;;5111105;28;20027;-54
2022/09/22 04:32:22;;;;;;;31.05;19.35;;;8.80;99.90;;;;;;5110892;28;20051;-54
2022/09/22 04:34:48;;;;;;;28.60;18.20;;;8.80;99.90;;;;;;5110669;28;20016;-54
2022/09/22 04:37:14;;;;;;;31.33;19.38;;;8.80;99.90;;;;;;5091578;28;20040;-54
2022/09/22 04:39:40;;;;;;;32.28;18.10;;;8.80;99.90;;;;;;5090152;28;20028;-54
2022/09/22 04:42:07;;;;;;;28.42;18.05;;;8.80;99.90;;;;;;5090066;28;20426;-54
2022/09/22 04:44:33;;;;;;;36.80;20.33;;;8.80;99.90;;;;;;5090245;28;20054;-54
2022/09/22 04:46:59;;;;;;;32.20;18.98;;;8.80;99.90;;;;;;5106776;28;20040;-54
2022/09/22 04:49:25;;;;;;;35.63;19.80;;;8.80;99.90;;;;;;5109138;28;20027;-54
2022/09/22 04:51:51;;;;;;;31.92;18.30;;;8.80;99.90;;;;;;5110546;28;20030;-54
2022/09/22 04:54:16;;;;;;;34.28;18.00;;;8.80;99.90;;;;;;5110812;28;20034;-54
2022/09/22 04:56:42;;;;;;;30.05;17.98;;;8.80;99.90;;;;;;5110305;28;20478;-54
2022/09/22 04:59:08;;;;;;;26.85;17.80;;;8.80;99.90;;;;;;5110295;28;20134;-55
2022/09/22 05:01:35;;;;;;;32.15;18.17;;;8.80;99.90;;;;;;5097790;28;20510;-53
2022/09/22 05:04:01;;;;;;;25.70;15.88;;;8.80;99.90;;;;;;5090251;28;20081;-52
2022/09/22 05:06:27;;;;;;;27.00;16.80;;;8.80;99.90;;;;;;5089882;28;20107;-53
2022/09/22 05:08:52;;;;;;;30.52;17.55;;;8.90;99.90;;;;;;5090016;28;20070;-53
2022/09/22 05:11:22;;;;;;;27.52;16.45;;;8.80;99.90;;;;;;5089949;28;20054;-54
2022/09/22 05:13:49;;;;;;;26.10;16.70;;;8.80;99.90;;;;;;5090295;28;20035;-54
2022/09/22 05:16:16;;;;;;;26.50;16.80;;;8.70;99.90;;;;;;5088718;28;20056;-54
2022/09/22 05:18:41;;;;;;;26.67;16.80;;;8.70;99.90;;;;;;5089734;28;20032;-54
2022/09/22 05:21:07;;;;;;;25.63;15.68;;;8.80;99.90;;;;;;5089751;28;20051;-55
2022/09/22 05:23:33;;;;;;;29.20;16.13;;;8.80;99.90;;;;;;5089715;28;20123;-54
2022/09/22 05:25:59;;;;;;;26.80;16.95;;;8.80;99.90;;;;;;5088974;28;20060;-53
2022/09/22 05:28:25;;;;;;;27.02;16.38;;;8.80;99.90;;;;;;5088956;28;20052;-54
2022/09/22 05:30:51;;;;;;;27.48;16.52;;;8.80;99.90;;;;;;5089486;28;20031;-54
2022/09/22 05:33:17;;;;;;;27.88;16.00;;;8.80;99.90;;;;;;5087988;28;20020;-54
2022/09/22 05:35:43;;;;;;;24.90;15.68;;;8.80;99.90;;;;;;5096110;28;20024;-54
2022/09/22 05:38:09;;;;;;;27.17;15.93;;;8.80;99.90;;;;;;5101026;28;20035;-53
2022/09/22 05:40:35;;;;;;;27.55;16.40;;;8.80;99.90;;;;;;5110214;28;20047;-54
2022/09/22 05:43:00;;;;;;;28.00;17.10;;;8.90;99.90;;;;;;5083152;28;20407;-54
2022/09/22 05:45:26;;;;;;;28.48;17.60;;;8.90;99.90;;;;;;5072763;28;20050;-55
2022/09/22 05:47:52;;;;;;;26.83;16.52;;;8.90;99.90;;;;;;5072854;28;20036;-53
2022/09/22 05:50:19;;;;;;;30.85;17.02;;;8.90;99.90;;;;;;5085325;28;20466;-54
2022/09/22 05:52:45;;;;;;;;;;;9.00;99.90;;;;;;5102015;28;20112;-55
2022/09/22 05:55:12;;;;;;;27.23;16.60;;;8.90;99.90;;;;;;5101078;28;20362;-54
2022/09/22 05:57:38;;;;;;;31.15;18.33;;;8.90;99.90;;;;;;5102335;28;20059;-53
2022/09/22 06:00:06;;;;;;;31.00;17.30;;;8.90;99.90;;;;;;5099757;28;20036;-55
2022/09/22 06:02:32;;;;;;;35.42;19.10;;;9.00;99.90;;;;;;5093540;28;20489;-54
2022/09/22 06:05:01;;;;;;;41.75;19.85;;;9.10;99.90;;;;;;5092772;28;20024;-55
2022/09/22 06:07:26;;;;;;;31.90;18.67;;;9.10;99.90;;;;;;5091882;28;20020;-54
2022/09/22 06:09:52;;;;;;;29.52;18.55;;;9.10;99.90;;;;;;5091845;28;20034;-53
2022/09/22 06:12:18;;;;;;;28.60;17.27;;;9.00;99.90;;;;;;5100134;28;20039;-53
2022/09/22 06:14:44;;;;;;;28.08;16.55;;;9.10;99.90;;;;;;5113509;28;20054;-53
2022/09/22 06:17:11;;;;;;;31.80;16.88;;;9.10;99.90;;;;;;5113408;28;20036;-54
2022/09/22 06:19:38;;;;;;;35.28;18.17;;;9.10;99.90;;;;;;5146421;27;20134;-54
2022/09/22 06:22:04;;;;;;;31.45;16.77;;;9.20;99.90;;;;;;5113263;28;20028;-54
2022/09/22 06:24:30;;;;;;;28.23;16.33;;;9.20;99.90;;;;;;5113507;28;20479;-54
2022/09/22 06:26:55;;;;;;;30.83;16.95;;;9.20;99.90;;;;;;5111915;28;20069;-54
2022/09/22 06:29:21;;;;;;;25.50;15.30;;;9.30;99.90;;;;;;5113260;28;20511;-54
2022/09/22 06:31:48;;;;;;;30.20;17.60;;;9.30;99.90;;;;;;5113038;28;20030;-54
2022/09/22 06:34:14;;;;;;;23.90;14.77;;;9.30;99.90;;;;;;5113272;28;20035;-54
2022/09/22 06:36:41;;;;;;;25.83;14.45;;;9.30;99.90;;;;;;5113040;28;20039;-54
2022/09/22 06:39:07;;;;;;;27.25;15.52;;;9.30;99.90;;;;;;5113386;28;20478;-54
2022/09/22 06:41:32;;;;;;;29.58;15.00;;;9.40;99.90;;;;;;5113123;28;20042;-54
2022/09/22 06:43:59;;;;;;;29.23;15.13;;;9.50;99.90;;;;;;5113237;28;20038;-54
2022/09/22 06:46:27;;;;;;;27.83;15.20;;;9.50;99.90;;;;;;5112999;28;20062;-54
2022/09/22 06:48:56;;;;;;;29.20;16.65;;;9.50;99.90;;;;;;5113004;28;20091;-54
2022/09/22 06:51:31;;;;;;;24.65;15.18;;;9.50;99.90;;;;;;5112295;28;20032;-54
2022/09/22 06:53:59;;;;;;;25.80;14.60;;;9.50;99.90;;;;;;5111829;28;20052;-54
2022/09/22 06:56:26;;;;;;;24.70;15.82;;;9.60;99.90;;;;;;5112795;28;20032;-54
2022/09/22 06:58:53;;;;;;;;;;;9.60;99.90;;;;;;5113073;28;20032;-54
2022/09/22 07:01:18;;;;;;;25.58;14.32;;;9.70;99.90;;;;;;5112801;28;19915;-55
2022/09/22 07:03:45;;;;;;;26.45;15.45;;;9.70;99.90;;;;;;5112509;28;20501;-54
2022/09/22 07:06:16;;;;;;;26.25;15.70;;;9.70;99.90;;;;;;5112339;28;20054;-54
2022/09/22 07:08:42;;;;;;;25.70;14.75;;;9.80;99.90;;;;;;5111002;28;20019;-54
2022/09/22 07:11:09;;;;;;;24.77;14.07;;;9.80;99.90;;;;;;5112517;28;20024;-55
2022/09/22 07:13:37;;;;;;;22.73;13.40;;;9.80;99.90;;;;;;5112340;27;20031;-55
2022/09/22 07:16:16;;;;;;;25.50;14.77;;;9.80;99.90;;;;;;5112331;28;20023;-55
2022/09/22 07:18:46;;;;;;;21.90;13.88;;;9.80;99.90;;;;;;5112220;28;20127;-55
2022/09/22 07:21:24;;;;;;;23.50;13.52;;;9.80;99.90;;;;;;5112539;28;20022;-54
2022/09/22 07:23:53;;;;;;;24.70;14.40;;;9.80;99.90;;;;;;5112281;28;20019;-54
2022/09/22 07:26:21;;;;;;;21.10;13.02;;;9.80;99.90;;;;;;5110802;28;20126;-55
2022/09/22 07:28:50;;;;;;;22.88;13.77;;;9.90;99.90;;;;;;5111665;28;20048;-54
2022/09/22 07:31:16;;;;;;;20.08;12.45;;;9.90;99.90;;;;;;5079964;28;20086;-55
2022/09/22 07:33:45;;;;;;;24.98;14.30;;;10.00;99.90;;;;;;5091449;28;20024;-55
2022/09/22 07:36:12;;;;;;;18.63;12.18;;;10.20;99.90;;;;;;5091550;28;20077;-55
2022/09/22 07:38:38;;;;;;;;;;;10.30;99.90;;;;;;5091693;28;20115;-54
2022/09/22 07:41:10;;;;;;;21.52;11.45;;;10.40;99.90;;;;;;5094596;28;20728;-54
2022/09/22 07:43:37;;;;;;;19.27;12.10;;;10.40;99.90;;;;;;5100554;28;20024;-54
2022/09/22 07:46:03;;;;;;;18.70;11.23;;;10.50;99.90;;;;;;5100064;28;20051;-54
2022/09/22 07:48:35;;;;;;;18.15;10.75;;;10.70;99.90;;;;;;5101169;28;20099;-54
2022/09/22 07:51:09;;;;;;;19.65;11.05;;;10.70;99.90;;;;;;5100966;28;20058;-54
2022/09/22 07:53:36;;;;;;;21.50;11.23;;;10.70;99.90;;;;;;5099670;28;20100;-54
2022/09/22 07:56:03;;;;;;;;;;;10.70;99.90;;;;;;5101732;28;20387;-55
2022/09/22 07:58:29;;;;;;;16.42;9.57;;;10.70;99.90;;;;;;5095317;28;20418;-54
2022/09/22 08:00:55;;;;;;;17.20;10.65;;;10.70;99.90;;;;;;5099962;28;20557;-53
2022/09/22 08:03:21;;;;;;;12.52;9.00;;;10.70;99.90;;;;;;5101392;28;20024;-53
2022/09/22 08:05:48;;;;;;;16.40;9.98;;;10.80;99.90;;;;;;5099980;28;20379;-53
2022/09/22 08:08:15;;;;;;;19.55;10.20;;;10.90;99.90;;;;;;5100024;28;20470;-54
2022/09/22 08:10:41;;;;;;;15.23;8.60;;;11.10;99.90;;;;;;5101261;28;20562;-54
2022/09/22 08:13:08;;;;;;;13.55;7.55;;;11.30;99.90;;;;;;5100097;28;20031;-54
2022/09/22 08:15:34;;;;;;;12.45;7.38;;;11.40;99.90;;;;;;5100857;28;20028;-53
2022/09/22 08:18:03;;;;;;;12.50;6.35;;;11.60;99.90;;;;;;5099223;28;20437;-54
2022/09/22 08:20:29;;;;;;;8.98;5.38;;;11.60;99.90;;;;;;5100742;27;20031;-54
2022/09/22 08:23:00;;;;;;;8.93;5.30;;;11.60;99.90;;;;;;5096427;28;20391;-54
2022/09/22 08:25:26;;;;;;;7.72;4.38;;;11.80;99.90;;;;;;5097036;28;20672;-55
2022/09/22 08:27:51;;;;;;;8.68;5.15;;;12.00;99.90;;;;;;5097090;28;20056;-54
2022/09/22 08:30:18;;;;;;;11.98;5.57;;;12.10;99.90;;;;;;5097724;28;20034;-55
2022/09/22 08:32:44;;;;;;;12.55;6.10;;;12.00;99.90;;;;;;5099582;28;20387;-55
2022/09/22 08:35:10;;;;;;;11.32;7.03;;;12.00;99.90;;;;;;5098527;28;20023;-54
2022/09/22 08:37:36;;;;;;;17.08;7.35;;;11.90;99.90;;;;;;5100353;28;20131;-55
2022/09/22 08:40:04;;;;;;;10.65;6.22;;;11.80;99.90;;;;;;5099016;28;20422;-55
2022/09/22 08:42:30;;;;;;;10.45;5.13;;;11.90;99.90;;;;;;5100501;28;20159;-55
2022/09/22 08:44:57;;;;;;;11.48;5.45;;;12.00;99.90;;;;;;5100700;28;20096;-55
2022/09/22 08:53:40;;;;;;;8.05;4.35;;;12.30;99.90;;;;;;5097133;28;20077;-55
2022/09/22 08:56:19;;;;;;;8.30;3.90;;;12.30;99.90;;;;;;5094903;28;20123;-54
2022/09/22 08:58:59;;;;;;;8.32;4.15;;;12.60;99.90;;;;;;5093213;28;20123;-54
2022/09/22 09:01:44;;;;;;;7.47;3.83;;;13.50;99.90;;;;;;5094911;28;20461;-55
2022/09/22 09:04:41;;;;;;;6.68;3.38;;;13.80;99.90;;;;;;5096388;28;20026;-54
2022/09/22 09:07:42;;;;;;;6.47;2.70;;;13.70;99.90;;;;;;5061610;28;20038;-55
2022/09/22 09:10:43;;;;;;;3.70;2.08;;;13.80;99.90;;;;;;5099169;28;20123;-54
2022/09/22 09:13:28;;;;;;;8.05;1.95;;;13.90;99.90;;;;;;5097216;28;20131;-53
2022/09/22 09:16:24;;;;;;;7.60;2.22;;;14.30;99.90;;;;;;5097475;28;20028;-54
2022/09/22 09:19:27;;;;;;;5.07;2.15;;;15.70;99.90;;;;;;5098073;28;20035;-54
2022/09/22 09:21:57;;;;;;;9.05;3.75;;;15.50;99.90;;;;;;5071630;28;20036;-54
2022/09/22 09:24:35;;;;;;;7.45;3.78;;;15.30;99.90;;;;;;5097725;28;20028;-54
2022/09/22 09:27:09;;;;;;;9.50;4.38;;;14.80;99.90;;;;;;5089783;28;20056;-54
2022/09/22 09:29:45;;;;;;;8.43;3.95;;;14.40;99.90;;;;;;5090177;28;20087;-54
2022/09/22 09:32:24;;;;;;;6.38;2.70;;;15.20;99.90;;;;;;5087782;28;20494;-54
2022/09/22 09:34:50;;;;;;;4.65;2.13;;;15.50;99.90;;;;;;5084999;28;20036;-55
2022/09/22 09:37:17;;;;;;;4.55;2.72;;;16.10;99.90;;;;;;5087909;28;20476;-54
2022/09/22 09:39:44;;;;;;;5.22;1.95;;;16.10;99.90;;;;;;5087680;28;20032;-54
2022/09/22 09:42:30;;;;;;;5.55;1.92;;;16.60;99.90;;;;;;5087944;28;20525;-54
2022/09/22 09:45:01;;;;;;;4.72;2.47;;;16.90;99.90;;;;;;5087119;28;20032;-55
2022/09/22 09:47:46;;;;;;;5.30;2.97;;;16.50;99.90;;;;;;5088098;28;20051;-54
2022/09/22 09:50:13;;;;;;;5.57;3.15;;;16.00;99.90;;;;;;5087999;28;20030;-54
2022/09/22 09:52:39;;;;;;;;;;;15.30;99.90;;;;;;5088127;28;20039;-54
2022/09/22 09:55:18;;;;;;;6.68;2.97;;;15.10;99.90;;;;;;5088050;28;19912;-54
2022/09/22 09:58:07;;;;;;;5.32;2.40;;;15.00;99.90;;;;;;5088101;28;20039;-53
2022/09/22 10:00:35;;;;;;;7.75;2.38;;;15.20;99.90;;;;;;5086925;28;20371;-54
2022/09/22 10:03:21;;;;;;;2.38;1.73;;;15.30;99.90;;;;;;5088668;28;20507;-55
2022/09/22 10:05:59;;;;;;;6.60;2.92;;;15.60;99.90;;;;;;5089589;28;20039;-55
2022/09/22 10:08:26;;;;;;;7.03;3.58;;;16.70;99.90;;;;;;5089350;28;20020;-55
2022/09/22 10:11:00;;;;;;;10.75;5.68;;;16.10;99.90;;;;;;5088601;28;20051;-55
2022/09/22 10:13:35;;;;;;;7.22;3.65;;;16.00;99.90;;;;;;5089358;28;20031;-55
2022/09/22 10:16:05;;;;;;;5.18;2.90;;;15.80;99.90;;;;;;5088079;28;20026;-54
2022/09/22 10:18:33;;;;;;;5.15;3.60;;;15.70;99.90;;;;;;5088235;28;20040;-54
2022/09/22 10:21:20;;;;;;;3.65;2.20;;;15.50;99.90;;;;;;5089413;28;20035;-54
2022/09/22 10:23:56;;;;;;;5.45;1.92;;;15.50;99.90;;;;;;5089216;28;20047;-55
2022/09/22 10:26:31;;;;;;;5.88;2.97;;;15.20;99.90;;;;;;5092254;28;20031;-54
2022/09/22 10:29:08;;;;;;;8.38;4.78;;;14.80;99.90;;;;;;5092747;28;20407;-54
2022/09/22 10:31:36;;;;;;;6.53;3.78;;;14.60;99.90;;;;;;5093068;28;20020;-54
2022/09/22 10:34:02;;;;;;;4.53;2.72;;;14.20;99.90;;;;;;5092982;28;20035;-54
2022/09/22 10:36:29;;;;;;;7.70;3.50;;;14.20;99.90;;;;;;5092841;28;20031;-55
2022/09/22 10:38:55;;;;;;;6.07;3.88;;;14.30;99.90;;;;;;5092748;28;20550;-54
2022/09/22 10:41:27;;;;;;;8.15;2.90;;;14.20;99.90;;;;;;5092593;28;20031;-54
2022/09/22 10:43:59;;;;;;;3.67;2.00;;;14.30;99.90;;;;;;5092637;28;20035;-55
2022/09/22 10:46:33;;;;;;;4.55;2.30;;;14.20;99.90;;;;;;5092511;28;20055;-54
2022/09/22 10:49:32;;;;;;;7.75;3.83;;;14.30;99.90;;;;;;5092873;28;20032;-54
2022/09/22 10:51:57;;;;;;;7.40;3.97;;;14.30;99.90;;;;;;5092751;28;20023;-54
2022/09/22 10:54:23;;;;;;;9.50;4.25;;;14.10;99.90;;;;;;5092741;28;20032;-54
2022/09/22 10:56:53;;;;;;;8.95;5.03;;;14.10;99.90;;;;;;5092472;28;20717;-54
2022/09/22 10:59:50;;;;;;;7.55;3.20;;;13.90;99.90;;;;;;5092073;28;20554;-54
2022/09/22 11:02:54;;;;;;;7.78;3.30;;;14.00;99.90;;;;;;5092326;28;20016;-54
2022/09/22 11:14:42;;;;;;;6.47;2.60;;;13.80;99.90;;;;;;5069055;28;20494;-55
2022/09/22 11:17:17;;;;;;;3.63;2.30;;;13.80;99.90;;;;;;5092071;28;20066;-54
2022/09/22 11:19:43;;;;;;;6.65;3.00;;;14.10;99.90;;;;;;5086829;28;20063;-54
2022/09/22 11:22:35;;;;;;;5.70;3.08;;;14.70;99.90;;;;;;5070948;28;20535;-54
2022/09/22 11:25:15;;;;;;;6.90;3.58;;;15.50;99.90;;;;;;5069934;28;20115;-54
2022/09/22 11:27:54;;;;;;;8.63;4.07;;;15.80;99.90;;;;;;5071306;28;20048;-55
2022/09/22 11:30:21;;;;;;;7.88;3.42;;;15.80;99.90;;;;;;5081305;28;20043;-55
2022/09/22 11:33:15;;;;;;;11.48;4.68;;;15.80;99.90;;;;;;5091560;28;20467;-55
2022/09/22 11:36:11;;;;;;;9.20;4.68;;;15.90;99.90;;;;;;5091637;28;20035;-55
2022/09/22 11:38:45;;;;;;;5.85;3.17;;;15.80;99.90;;;;;;5091476;28;20032;-55
2022/09/22 11:41:37;;;;;;;5.97;3.10;;;15.60;99.90;;;;;;5090004;28;20105;-55
2022/09/22 11:44:14;;;;;;;7.05;3.13;;;15.40;99.90;;;;;;5091371;28;20028;-55
2022/09/22 11:46:59;;;;;;;12.23;2.78;;;15.10;99.90;;;;;;5091242;28;20759;-55
2022/09/22 11:49:49;;;;;;;4.82;2.45;;;15.30;99.90;;;;;;5091269;28;20395;-55
2022/09/22 11:52:27;;;;;;;10.38;3.83;;;15.10;99.90;;;;;;5091194;28;20047;-55
2022/09/22 11:55:05;;;;;;;6.78;3.13;;;15.10;99.90;;;;;;5091102;28;20031;-55
2022/09/22 11:57:36;;;;;;;5.15;3.15;;;14.90;99.90;;;;;;5096421;28;20032;-55
2022/09/22 12:00:20;;;;;;;7.55;3.33;;;14.80;99.90;;;;;;5099413;28;20035;-55
2022/09/22 12:03:01;;;;;;;6.93;3.40;;;14.70;99.90;;;;;;5100679;28;20031;-55
2022/09/22 12:05:38;;;;;;;5.97;2.92;;;14.40;99.90;;;;;;5107380;28;20039;-56
2022/09/22 12:08:27;;;;;;;4.95;2.50;;;14.30;99.90;;;;;;5106705;28;20024;-55
2022/09/22 12:10:55;;;;;;;6.28;2.80;;;14.10;99.90;;;;;;5090355;28;20051;-54
2022/09/22 12:13:29;;;;;;;4.90;2.83;;;14.10;99.90;;;;;;5090060;28;20050;-55
2022/09/22 12:16:21;;;;;;;4.82;2.58;;;14.00;99.90;;;;;;5090322;28;20720;-55
2022/09/22 12:18:59;;;;;;;4.90;3.03;;;13.90;99.90;;;;;;5068800;28;20048;-55
2022/09/22 12:21:45;;;;;;;;;;;13.90;99.90;;;;;;5070951;28;20127;-55
2022/09/22 12:24:11;;;;;;;7.90;2.90;;;14.10;99.90;;;;;;5060034;28;19912;-55
2022/09/22 12:26:39;;;;;;;5.03;3.10;;;14.20;99.90;;;;;;5099741;28;20017;-56
2022/09/22 12:29:22;;;;;;;6.88;3.60;;;14.30;99.90;;;;;;5099469;28;20928;-56
2022/09/22 12:31:51;;;;;;;7.75;3.95;;;14.30;99.90;;;;;;5099471;28;20051;-55
2022/09/22 12:34:19;;;;;;;7.90;4.28;;;14.40;99.90;;;;;;5096979;28;20087;-55
2022/09/22 12:36:47;;;;;;;10.02;4.32;;;14.40;99.90;;;;;;5093895;28;20740;-55
2022/09/22 12:39:26;;;;;;;7.10;4.00;;;14.60;99.90;;;;;;5088910;28;20032;-55
2022/09/22 12:42:04;;;;;;;8.93;4.25;;;14.50;99.90;;;;;;5089014;28;20111;-56
2022/09/22 12:44:35;;;;;;;6.60;4.28;;;14.50;99.90;;;;;;5089064;28;20020;-55
2022/09/22 12:47:05;;;;;;;9.07;4.22;;;14.60;99.90;;;;;;5090713;28;20071;-55
2022/09/22 12:49:31;;;;;;;10.75;4.65;;;14.60;99.90;;;;;;5088343;28;20020;-53
2022/09/22 12:51:57;;;;;;;11.52;6.72;;;14.60;99.90;;;;;;5096830;28;20409;-55
2022/09/22 12:54:24;;;;;;;7.93;4.07;;;14.50;99.90;;;;;;5101245;28;20077;-55
2022/09/22 12:57:18;;;;;;;8.53;4.60;;;14.40;99.90;;;;;;5100402;28;20039;-55
2022/09/22 13:00:11;;;;;;;6.38;4.22;;;14.40;99.90;;;;;;5096669;28;20519;-55
2022/09/22 13:02:42;;;;;;;10.05;6.97;;;14.40;99.90;;;;;;5100756;28;20149;-54
2022/09/22 13:05:07;;;;;;;8.98;3.90;;;14.40;99.90;;;;;;5100756;28;20114;-54
2022/09/22 13:07:37;;;;;;;8.63;3.78;;;14.20;99.90;;;;;;5104035;28;20180;-53
2022/09/22 13:10:21;;;;;;;6.43;3.40;;;14.20;99.90;;;;;;5105614;28;20027;-53
2022/09/22 13:13:02;;;;;;;7.25;4.47;;;14.30;99.90;;;;;;5104150;28;20024;-54
2022/09/22 13:15:32;;;;;;;9.80;4.40;;;14.50;99.90;;;;;;5098435;28;20379;-54
2022/09/22 13:17:58;;;;;;;5.65;3.38;;;14.60;99.90;;;;;;5098487;28;20028;-54